createdAt,value
2018-12-03T00:03:32.143Z,3.70
2018-12-03T00:05:59.544Z,3.20
2018-12-03T00:08:26.962Z,3.40
2018-12-03T00:10:54.623Z,3.50
2018-12-03T00:13:22.101Z,3.53
2018-12-03T00:15:49.507Z,3.13
2018-12-03T00:18:16.906Z,3.43
2018-12-03T00:20:44.472Z,3.43
2018-12-03T00:23:12.125Z,3.80
2018-12-03T00:25:39.527Z,3.33
2018-12-03T00:28:06.947Z,3.03
2018-12-03T00:30:34.639Z,3.37
2018-12-03T00:33:02.286Z,2.90
2018-12-03T00:35:29.726Z,3.03
2018-12-03T00:37:57.367Z,3.43
2018-12-03T00:40:24.767Z,2.77
2018-12-03T00:42:52.502Z,3.23
2018-12-03T00:45:19.903Z,2.97
2018-12-03T00:47:47.322Z,3.40
2018-12-03T00:50:14.724Z,3.07
2018-12-03T00:52:42.132Z,2.90
2018-12-03T00:55:09.550Z,3.40
2018-12-03T00:57:37.242Z,2.97
2018-12-03T01:00:45.492Z,3.03
2018-12-03T01:03:12.895Z,3.20
2018-12-03T01:05:40.294Z,2.80
2018-12-03T01:08:07.721Z,3.33
2018-12-03T01:10:35.119Z,3.30
2018-12-03T01:13:22.452Z,3.43
2018-12-03T01:15:49.855Z,3.70
2018-12-03T01:18:17.262Z,4.23
2018-12-03T01:20:44.963Z,3.73
2018-12-03T01:23:12.365Z,2.83
2018-12-03T01:25:39.768Z,3.07
2018-12-03T01:28:07.258Z,3.10
2018-12-03T01:30:34.995Z,2.93
2018-12-03T01:33:02.471Z,3.10
2018-12-03T01:35:29.889Z,3.10
2018-12-03T01:37:57.303Z,3.20
2018-12-03T01:40:25.043Z,3.20
2018-12-03T01:42:52.465Z,3.07
2018-12-03T01:45:19.927Z,3.33
2018-12-03T01:47:47.329Z,3.57
2018-12-03T01:50:34.418Z,3.97
2018-12-03T01:53:02.082Z,3.40
2018-12-03T01:55:29.488Z,3.30
2018-12-03T01:57:57.201Z,3.27
2018-12-03T02:01:05.496Z,3.43
2018-12-03T02:03:52.826Z,3.10
2018-12-03T02:06:20.506Z,3.00
2018-12-03T02:08:48.179Z,3.50
2018-12-03T02:11:15.938Z,2.93
2018-12-03T02:13:43.688Z,3.47
2018-12-03T02:16:11.451Z,3.70
2018-12-03T02:18:38.859Z,3.40
2018-12-03T02:21:06.268Z,3.00
2018-12-03T02:23:33.682Z,3.60
2018-12-03T02:26:01.382Z,2.90
2018-12-03T02:28:28.851Z,3.20
2018-12-03T02:30:56.503Z,3.07
2018-12-03T02:33:23.925Z,2.63
2018-12-03T02:35:51.379Z,2.97
2018-12-03T02:38:18.782Z,2.90
2018-12-03T02:40:46.198Z,2.83
2018-12-03T02:43:13.611Z,2.77
2018-12-03T02:45:41.266Z,3.03
2018-12-03T02:48:08.670Z,3.00
2018-12-03T02:50:36.302Z,3.40
2018-12-03T02:53:04.027Z,3.10
2018-12-03T02:55:31.430Z,2.70
2018-12-03T02:57:59.149Z,2.53
2018-12-03T03:00:26.810Z,2.60
2018-12-03T03:02:54.216Z,2.67
2018-12-03T03:05:21.634Z,2.70
2018-12-03T03:07:49.291Z,2.80
2018-12-03T03:10:16.695Z,3.00
2018-12-03T03:12:44.399Z,2.73
2018-12-03T03:15:12.163Z,3.00
2018-12-03T03:17:39.567Z,2.50
2018-12-03T03:20:07.133Z,3.10
2018-12-03T03:22:34.844Z,2.67
2018-12-03T03:25:02.258Z,2.60
2018-12-03T03:27:29.663Z,2.93
2018-12-03T03:29:57.088Z,2.77
2018-12-03T03:32:24.492Z,2.80
2018-12-03T03:34:52.228Z,2.80
2018-12-03T03:37:19.642Z,2.70
2018-12-03T03:39:47.042Z,2.97
2018-12-03T03:42:34.363Z,3.00
2018-12-03T03:45:02.027Z,2.93
2018-12-03T03:47:29.443Z,2.90
2018-12-03T03:49:56.847Z,2.20
2018-12-03T03:52:24.334Z,2.87
2018-12-03T03:54:52.060Z,3.00
2018-12-03T03:57:19.718Z,3.23
2018-12-03T03:59:47.136Z,2.80
2018-12-03T04:02:14.541Z,2.80
2018-12-03T04:04:42.025Z,2.73
2018-12-03T04:07:09.429Z,3.10
2018-12-03T04:09:36.903Z,3.40
2018-12-03T04:12:45.399Z,2.90
2018-12-03T04:15:12.792Z,3.30
2018-12-03T04:17:40.214Z,2.90
2018-12-03T04:20:07.615Z,2.90
2018-12-03T04:22:35.354Z,2.87
2018-12-03T04:25:03.128Z,2.77
2018-12-03T04:27:30.587Z,3.00
2018-12-03T04:29:58.360Z,2.77
2018-12-03T04:32:45.506Z,3.00
2018-12-03T04:35:12.920Z,3.10
2018-12-03T04:37:40.579Z,3.13
2018-12-03T04:40:08.127Z,3.13
2018-12-03T04:42:35.531Z,2.90
2018-12-03T04:45:03.012Z,3.10
2018-12-03T04:47:30.718Z,3.43
2018-12-03T04:49:58.119Z,3.10
2018-12-03T04:52:25.543Z,3.07
2018-12-03T04:56:06.337Z,3.07
2018-12-03T04:58:33.755Z,2.80
2018-12-03T05:01:01.148Z,2.83
2018-12-03T05:03:28.546Z,3.07
2018-12-03T05:05:56.232Z,3.60
2018-12-03T05:08:23.902Z,3.20
2018-12-03T05:10:51.666Z,3.33
2018-12-03T05:13:19.061Z,2.90
2018-12-03T05:15:46.473Z,2.80
2018-12-03T05:18:14.146Z,3.33
2018-12-03T05:20:41.794Z,2.90
2018-12-03T05:23:09.199Z,3.10
2018-12-03T05:25:36.710Z,3.10
2018-12-03T05:31:11.850Z,3.17
2018-12-03T05:33:39.530Z,3.20
2018-12-03T05:36:07.189Z,3.00
2018-12-03T05:38:34.865Z,3.33
2018-12-03T05:41:02.258Z,3.43
2018-12-03T05:43:29.672Z,3.20
2018-12-03T05:45:57.326Z,3.23
2018-12-03T05:48:24.724Z,2.93
2018-12-03T05:50:52.131Z,3.00
2018-12-03T05:53:19.807Z,3.27
2018-12-03T05:55:47.227Z,3.00
2018-12-03T05:58:14.623Z,3.13
2018-12-03T06:00:42.025Z,3.10
2018-12-03T06:03:09.434Z,3.30
2018-12-03T06:05:36.861Z,3.20
2018-12-03T06:08:45.334Z,3.47
2018-12-03T06:11:12.880Z,3.07
2018-12-03T06:13:40.286Z,2.80
2018-12-03T06:16:07.977Z,4.03
2018-12-03T06:18:35.637Z,4.07
2018-12-03T06:21:03.027Z,3.73
2018-12-03T06:23:30.435Z,4.83
2018-12-03T06:25:58.109Z,3.73
2018-12-03T06:28:25.526Z,3.70
2018-12-03T06:31:12.593Z,3.30
2018-12-03T06:36:10.470Z,2.73
2018-12-03T06:38:38.129Z,2.67
2018-12-03T06:41:05.678Z,3.23
2018-12-03T06:43:33.085Z,2.87
2018-12-03T06:46:00.487Z,2.67
2018-12-03T06:48:27.919Z,2.63
2018-12-03T06:50:55.320Z,2.77
2018-12-03T06:53:22.725Z,3.17
2018-12-03T06:55:50.444Z,3.20
2018-12-03T06:58:18.100Z,3.07
2018-12-03T07:00:45.544Z,2.50
2018-12-03T07:05:25.213Z,3.10
2018-12-03T07:07:52.613Z,2.80
2018-12-03T07:10:20.017Z,3.13
2018-12-03T07:12:47.422Z,2.87
2018-12-03T07:15:15.512Z,3.17
2018-12-03T07:17:42.909Z,2.80
2018-12-03T07:20:10.421Z,2.80
2018-12-03T07:22:37.869Z,2.80
2018-12-03T07:25:05.481Z,3.13
2018-12-03T07:27:32.881Z,2.80
2018-12-03T07:30:00.275Z,3.00
2018-12-03T07:32:27.677Z,3.10
2018-12-03T07:34:55.072Z,3.00
2018-12-03T07:37:22.484Z,3.10
2018-12-03T07:39:49.877Z,2.97
2018-12-03T07:42:17.273Z,3.50
2018-12-03T07:44:44.685Z,4.10
2018-12-03T07:47:12.076Z,2.80
2018-12-03T07:49:39.490Z,3.37
2018-12-03T07:52:06.980Z,3.50
2018-12-03T07:54:34.390Z,3.70
2018-12-03T07:57:01.838Z,3.37
2018-12-03T07:59:29.234Z,3.60
2018-12-03T08:01:56.639Z,3.70
2018-12-03T08:07:04.489Z,4.40
2018-12-03T08:09:31.893Z,3.20
2018-12-03T08:11:59.334Z,2.87
2018-12-03T08:14:26.739Z,3.50
2018-12-03T08:16:54.141Z,3.20
2018-12-03T08:19:21.540Z,5.13
2018-12-03T08:21:48.953Z,3.87
2018-12-03T08:24:16.337Z,4.90
2018-12-03T08:26:43.741Z,6.07
2018-12-03T08:29:11.151Z,3.50
2018-12-03T08:31:38.632Z,3.83
2018-12-03T08:34:06.133Z,3.80
2018-12-03T08:36:33.541Z,3.53
2018-12-03T08:39:00.952Z,3.97
2018-12-03T08:41:28.341Z,3.07
2018-12-03T08:43:55.759Z,3.37
2018-12-03T08:46:23.155Z,3.70
2018-12-03T08:48:50.558Z,3.30
2018-12-03T08:51:17.961Z,3.83
2018-12-03T08:53:45.461Z,3.23
2018-12-03T08:56:12.857Z,3.20
2018-12-03T08:58:40.302Z,3.00
2018-12-03T09:01:08.426Z,3.03
2018-12-03T09:03:35.836Z,2.83
2018-12-03T09:06:05.137Z,3.40
2018-12-03T09:08:32.543Z,3.10
2018-12-03T09:10:59.977Z,3.70
2018-12-03T09:13:27.362Z,2.90
2018-12-03T09:15:54.809Z,2.90
2018-12-03T09:18:24.164Z,3.07
2018-12-03T09:20:51.558Z,3.00
2018-12-03T09:23:19.019Z,2.90
2018-12-03T09:25:46.440Z,3.10
2018-12-03T09:28:13.831Z,3.10
2018-12-03T09:30:41.244Z,3.00
2018-12-03T09:33:08.629Z,3.13
2018-12-03T09:35:36.044Z,4.00
2018-12-03T09:38:03.484Z,3.43
2018-12-03T09:40:30.938Z,3.67
2018-12-03T09:42:58.396Z,2.90
2018-12-03T09:45:25.801Z,3.13
2018-12-03T09:47:54.423Z,3.10
2018-12-03T09:50:22.100Z,2.70
2018-12-03T09:52:49.696Z,3.20
2018-12-03T09:55:17.148Z,3.20
2018-12-03T09:57:48.478Z,3.30
2018-12-03T10:00:16.356Z,3.40
2018-12-03T10:02:43.795Z,3.93
2018-12-03T10:05:11.201Z,3.23
2018-12-03T10:07:38.706Z,3.43
2018-12-03T10:10:09.593Z,3.30
2018-12-03T10:12:37.005Z,3.60
2018-12-03T10:17:47.521Z,4.17
2018-12-03T10:20:15.185Z,3.63
2018-12-03T10:22:45.965Z,3.93
2018-12-03T10:25:13.693Z,4.00
2018-12-03T10:30:11.077Z,4.00
2018-12-03T10:33:09.289Z,3.80
2018-12-03T10:35:36.705Z,3.30
2018-12-03T10:38:05.610Z,3.80
2018-12-03T10:40:36.930Z,4.03
2018-12-03T10:43:08.029Z,3.17
2018-12-03T10:45:35.878Z,3.40
2018-12-03T10:48:03.350Z,3.90
2018-12-03T10:50:30.750Z,3.70
2018-12-03T10:52:58.218Z,3.77
2018-12-03T10:55:25.677Z,3.00
2018-12-03T10:57:53.177Z,3.80
2018-12-03T11:03:11.404Z,3.90
2018-12-03T11:05:44.553Z,3.67
2018-12-03T11:08:13.754Z,3.13
2018-12-03T11:10:41.334Z,3.00
2018-12-03T11:13:09.433Z,4.00
2018-12-03T11:15:36.945Z,3.43
2018-12-03T11:18:04.831Z,3.23
2018-12-03T11:20:32.214Z,4.10
2018-12-03T11:22:59.678Z,3.17
2018-12-03T11:25:27.277Z,3.20
2018-12-03T11:27:55.480Z,3.73
2018-12-03T11:30:22.969Z,4.80
2018-12-03T11:32:50.421Z,3.10
2018-12-03T11:35:20.828Z,3.40
2018-12-03T11:37:48.229Z,3.07
2018-12-03T11:40:17.585Z,3.10
2018-12-03T11:42:44.989Z,3.00
2018-12-03T11:45:12.449Z,3.20
2018-12-03T11:47:39.958Z,3.57
2018-12-03T11:50:08.869Z,3.07
2018-12-03T11:52:36.325Z,3.10
2018-12-03T11:55:05.536Z,3.23
2018-12-03T11:57:33.058Z,2.77
2018-12-03T12:00:00.457Z,3.00
2018-12-03T12:02:27.853Z,3.07
2018-12-03T12:04:55.261Z,3.03
2018-12-03T12:07:22.727Z,2.93
2018-12-03T12:09:50.121Z,2.60
2018-12-03T12:12:17.518Z,3.13
2018-12-03T12:14:44.939Z,2.97
2018-12-03T12:17:12.337Z,3.57
2018-12-03T12:19:39.761Z,3.40
2018-12-03T12:22:07.296Z,3.50
2018-12-03T12:24:34.690Z,3.23
2018-12-03T12:27:02.099Z,3.57
2018-12-03T12:29:29.579Z,3.60
2018-12-03T12:31:56.999Z,3.30
2018-12-03T12:34:24.391Z,4.20
2018-12-03T12:36:51.793Z,4.13
2018-12-03T12:39:19.219Z,4.07
2018-12-03T12:41:46.613Z,3.00
2018-12-03T12:44:14.020Z,3.40
2018-12-03T12:46:41.420Z,3.07
2018-12-03T12:49:08.869Z,3.07
2018-12-03T12:51:36.333Z,3.33
2018-12-03T12:54:03.785Z,3.27
2018-12-03T12:56:31.182Z,3.80
2018-12-03T12:58:58.593Z,3.20
2018-12-03T13:01:26.043Z,3.00
2018-12-03T13:03:53.618Z,3.30
2018-12-03T13:06:21.069Z,3.63
2018-12-03T13:08:48.522Z,3.63
2018-12-03T13:11:15.933Z,3.50
2018-12-03T13:13:43.378Z,3.57
2018-12-03T13:16:10.797Z,3.37
2018-12-03T13:18:38.251Z,3.87
2018-12-03T13:21:05.841Z,4.00
2018-12-03T13:23:33.241Z,3.13
2018-12-03T13:26:00.646Z,3.50
2018-12-03T13:28:28.069Z,4.30
2018-12-03T13:30:55.476Z,3.87
2018-12-03T13:33:22.969Z,3.27
2018-12-03T13:35:50.377Z,3.20
2018-12-03T13:38:17.775Z,3.93
2018-12-03T13:40:45.185Z,3.93
2018-12-03T13:43:12.585Z,4.30
2018-12-03T13:45:40.081Z,3.90
2018-12-03T13:48:07.593Z,3.73
2018-12-03T13:50:35.038Z,4.33
2018-12-03T13:53:02.445Z,3.70
2018-12-03T13:55:29.845Z,3.70
2018-12-03T13:57:57.250Z,3.40
2018-12-03T14:00:24.760Z,3.80
2018-12-03T14:02:52.160Z,3.40
2018-12-03T14:05:19.555Z,3.50
2018-12-03T14:07:46.973Z,4.03
2018-12-03T14:10:17.973Z,3.73
2018-12-03T14:12:45.478Z,3.37
2018-12-03T14:15:16.190Z,3.83
2018-12-03T14:17:43.637Z,3.50
2018-12-03T14:20:11.100Z,3.67
2018-12-03T14:22:38.554Z,3.70
2018-12-03T14:25:06.472Z,3.97
2018-12-03T14:27:33.873Z,3.40
2018-12-03T14:30:01.265Z,3.27
2018-12-03T14:32:28.727Z,4.07
2018-12-03T14:34:56.125Z,3.50
2018-12-03T14:37:23.588Z,3.40
2018-12-03T14:39:50.989Z,3.50
2018-12-03T14:42:18.390Z,3.23
2018-12-03T14:44:45.941Z,3.77
2018-12-03T14:47:13.333Z,3.50
2018-12-03T14:49:40.741Z,3.40
2018-12-03T14:52:08.141Z,4.00
2018-12-03T14:54:35.540Z,3.60
2018-12-03T14:57:03.109Z,5.83
2018-12-03T14:59:30.563Z,4.00
2018-12-03T15:01:57.969Z,4.90
2018-12-03T15:04:25.421Z,3.93
2018-12-03T15:06:52.810Z,3.97
2018-12-03T15:09:20.255Z,3.80
2018-12-03T15:11:47.769Z,3.60
2018-12-03T15:14:15.173Z,4.23
2018-12-03T15:16:42.605Z,4.20
2018-12-03T15:19:11.704Z,3.87
2018-12-03T15:21:39.282Z,3.77
2018-12-03T15:24:06.693Z,3.70
2018-12-03T15:26:34.176Z,4.17
2018-12-03T15:29:01.653Z,3.50
2018-12-03T15:31:29.057Z,3.30
2018-12-03T15:33:56.517Z,3.77
2018-12-03T15:36:23.942Z,4.50
2018-12-03T15:38:51.333Z,4.13
2018-12-03T15:41:18.781Z,3.43
2018-12-03T15:43:46.200Z,3.90
2018-12-03T15:46:13.597Z,4.07
2018-12-03T15:48:40.993Z,4.20
2018-12-03T15:51:08.413Z,3.40
2018-12-03T15:53:35.817Z,3.80
2018-12-03T15:56:03.964Z,3.03
2018-12-03T15:58:31.422Z,3.57
2018-12-03T16:00:58.912Z,4.20
2018-12-03T16:03:26.426Z,3.67
2018-12-03T16:05:53.958Z,5.17
2018-12-03T16:08:21.390Z,3.90
2018-12-03T16:10:48.836Z,4.30
2018-12-03T16:13:16.386Z,3.50
2018-12-03T16:15:43.802Z,4.27
2018-12-03T16:18:11.261Z,3.63
2018-12-03T16:20:38.694Z,3.60
2018-12-03T16:23:06.114Z,4.30
2018-12-03T16:25:33.515Z,4.20
2018-12-03T16:28:00.909Z,3.80
2018-12-03T16:30:28.373Z,3.50
2018-12-03T16:32:55.773Z,3.63
2018-12-03T16:35:23.191Z,4.47
2018-12-03T16:37:50.645Z,3.80
2018-12-03T16:40:18.041Z,3.93
2018-12-03T16:42:45.448Z,3.83
2018-12-03T16:45:12.861Z,4.23
2018-12-03T16:47:40.349Z,4.30
2018-12-03T16:50:07.853Z,4.70
2018-12-03T16:52:35.275Z,3.80
2018-12-03T16:55:02.717Z,4.20
2018-12-03T16:57:30.161Z,4.10
2018-12-03T16:59:57.553Z,4.63
2018-12-03T17:02:24.960Z,4.63
2018-12-03T17:04:52.409Z,4.53
2018-12-03T17:07:19.817Z,4.07
2018-12-03T17:09:47.217Z,4.17
2018-12-03T17:12:14.618Z,4.63
2018-12-03T17:14:42.022Z,4.23
2018-12-03T17:17:09.421Z,3.83
2018-12-03T17:19:36.826Z,4.23
2018-12-03T17:22:04.330Z,4.27
2018-12-03T17:24:31.729Z,4.30
2018-12-03T17:26:59.189Z,5.10
2018-12-03T17:29:26.581Z,4.37
2018-12-03T17:31:53.998Z,4.77
2018-12-03T17:34:21.397Z,5.20
2018-12-03T17:36:48.864Z,5.10
2018-12-03T17:39:16.318Z,4.23
2018-12-03T17:41:43.709Z,5.10
2018-12-03T17:44:11.117Z,4.63
2018-12-03T17:46:38.899Z,4.27
2018-12-03T17:49:06.355Z,4.60
2018-12-03T17:51:33.793Z,4.37
2018-12-03T17:54:01.214Z,5.17
2018-12-03T17:56:28.625Z,5.10
2018-12-03T17:58:56.025Z,4.97
2018-12-03T18:01:23.417Z,5.43
2018-12-03T18:03:50.825Z,5.50
2018-12-03T18:06:18.229Z,5.10
2018-12-03T18:08:45.629Z,5.57
2018-12-03T18:11:13.028Z,6.07
2018-12-03T18:13:40.437Z,5.30
2018-12-03T18:16:07.851Z,5.10
2018-12-03T18:18:35.244Z,5.60
2018-12-03T18:21:02.639Z,5.70
2018-12-03T18:23:30.138Z,5.17
2018-12-03T18:25:57.593Z,4.80
2018-12-03T18:28:25.056Z,5.67
2018-12-03T18:30:52.460Z,5.70
2018-12-03T18:33:19.914Z,5.50
2018-12-03T18:35:47.326Z,6.10
2018-12-03T18:38:14.713Z,5.60
2018-12-03T18:40:42.176Z,6.17
2018-12-03T18:43:09.585Z,5.20
2018-12-03T18:45:37.073Z,4.13
2018-12-03T18:48:04.489Z,5.23
2018-12-03T18:50:31.986Z,4.10
2018-12-03T18:52:59.399Z,3.80
2018-12-03T18:55:26.806Z,3.40
2018-12-03T18:57:54.205Z,3.43
2018-12-03T19:00:21.613Z,4.30
2018-12-03T19:02:49.011Z,4.70
2018-12-03T19:05:16.410Z,3.97
2018-12-03T19:07:43.826Z,3.57
2018-12-03T19:10:11.229Z,4.33
2018-12-03T19:12:38.630Z,4.33
2018-12-03T19:15:06.143Z,4.50
2018-12-03T19:17:33.542Z,4.80
2018-12-03T19:20:00.950Z,3.97
2018-12-03T19:22:28.353Z,5.10
2018-12-03T19:24:55.753Z,4.30
2018-12-03T19:27:23.215Z,3.97
2018-12-03T19:29:50.662Z,3.20
2018-12-03T19:32:18.076Z,3.43
2018-12-03T19:34:45.483Z,3.63
2018-12-03T19:37:12.877Z,3.57
2018-12-03T19:39:40.391Z,3.10
2018-12-03T19:42:07.789Z,3.40
2018-12-03T19:44:35.237Z,3.72
2018-12-03T19:50:19.526Z,3.47
2018-12-03T19:52:47.688Z,3.10
2018-12-03T19:55:15.817Z,3.73
2018-12-03T19:57:43.919Z,3.60
2018-12-03T20:00:12.106Z,3.73
2018-12-03T20:02:40.197Z,3.40
2018-12-03T20:05:14.078Z,3.20
2018-12-03T20:07:42.165Z,3.77
2018-12-03T20:10:10.363Z,3.47
2018-12-03T20:12:38.456Z,3.93
2018-12-03T20:15:07.466Z,3.87
2018-12-03T20:17:35.706Z,3.97
2018-12-03T20:20:05.417Z,3.73
2018-12-03T20:22:33.836Z,3.60
2018-12-03T20:25:01.953Z,3.93
2018-12-03T20:27:30.233Z,3.70
2018-12-03T20:29:58.599Z,3.40
2018-12-03T20:32:26.851Z,4.30
2018-12-03T20:34:55.164Z,3.77
2018-12-03T20:37:26.485Z,4.00
2018-12-03T20:39:58.693Z,4.10
2018-12-03T20:42:27.023Z,3.67
2018-12-03T20:44:55.785Z,3.97
2018-12-03T20:47:23.867Z,3.60
2018-12-03T20:49:52.015Z,3.60
2018-12-03T20:52:20.118Z,3.47
2018-12-03T20:54:48.270Z,3.13
2018-12-03T20:57:16.373Z,4.20
2018-12-03T20:59:44.469Z,3.47
2018-12-03T21:02:12.606Z,3.67
2018-12-03T21:04:40.707Z,4.00
2018-12-03T21:07:08.798Z,3.33
2018-12-03T21:09:36.881Z,3.50
2018-12-03T21:12:05.029Z,3.83
2018-12-03T21:14:33.115Z,3.40
2018-12-03T21:17:01.226Z,3.90
2018-12-03T21:19:29.311Z,3.77
2018-12-03T21:21:57.391Z,3.67
2018-12-03T21:24:25.482Z,3.87
2018-12-03T21:26:53.573Z,4.70
2018-12-03T21:29:21.673Z,4.30
2018-12-03T21:31:49.759Z,4.10
2018-12-03T21:34:17.917Z,3.87
2018-12-03T21:36:46.009Z,4.70
2018-12-03T21:39:14.195Z,4.10
2018-12-03T21:41:42.254Z,4.50
2018-12-03T21:44:10.343Z,4.80
2018-12-03T21:46:38.425Z,4.50
2018-12-03T21:49:06.517Z,4.70
2018-12-03T21:51:34.605Z,4.50
2018-12-03T21:54:02.760Z,4.90
2018-12-03T21:56:30.913Z,4.40
2018-12-03T21:58:59.001Z,4.67
2018-12-03T22:01:27.100Z,5.57
2018-12-03T22:03:55.257Z,5.10
2018-12-03T22:06:23.349Z,4.80
2018-12-03T22:08:51.436Z,4.37
2018-12-03T22:11:19.589Z,4.77
2018-12-03T22:13:47.686Z,4.53
2018-12-03T22:16:15.775Z,4.73
2018-12-03T22:18:43.877Z,4.70
2018-12-03T22:21:11.973Z,4.23
2018-12-03T22:23:40.057Z,5.13
2018-12-03T22:26:08.209Z,4.47
2018-12-03T22:28:36.289Z,4.70
2018-12-03T22:31:04.446Z,6.20
2018-12-03T22:33:32.545Z,6.10
2018-12-03T22:36:00.640Z,5.33
2018-12-03T22:38:28.734Z,5.20
2018-12-03T22:40:56.821Z,5.53
2018-12-03T22:43:24.909Z,6.07
2018-12-03T22:45:53.009Z,5.77
2018-12-03T22:48:21.149Z,5.23
2018-12-03T22:50:49.258Z,5.87
2018-12-03T22:53:17.356Z,5.30
2018-12-03T22:55:45.445Z,5.13
2018-12-03T22:58:13.541Z,4.90
2018-12-03T23:03:28.845Z,5.77
2018-12-03T23:05:56.937Z,4.27
2018-12-03T23:08:25.032Z,4.80
2018-12-03T23:10:53.173Z,4.80
2018-12-03T23:13:21.252Z,5.77
2018-12-03T23:15:49.355Z,4.70
2018-12-03T23:18:17.433Z,4.50
2018-12-03T23:20:45.513Z,3.87
2018-12-03T23:23:13.715Z,4.20
2018-12-03T23:25:41.799Z,5.07
2018-12-03T23:28:09.897Z,4.60
2018-12-03T23:30:38.025Z,4.80
2018-12-03T23:33:06.101Z,4.00
2018-12-03T23:35:34.255Z,3.63
2018-12-03T23:38:02.393Z,4.60
2018-12-03T23:40:30.493Z,4.00
2018-12-03T23:42:58.633Z,4.20
2018-12-03T23:45:26.714Z,3.80
2018-12-03T23:47:54.809Z,3.60
2018-12-03T23:50:22.951Z,3.70
2018-12-03T23:52:51.057Z,4.60
2018-12-03T23:55:19.145Z,4.10
2018-12-03T23:57:47.229Z,3.70
